Time;durP1;ratioP1;P1;durP2;ratioP2;P2;SDS_P1;SDS_P2;PMS_P1;PMS_P2;Temp;Humidity;BMP_temperature;BMP_pressure;BME280_temperature;BME280_humidity;BME280_pressure;Samples;Min_cycle;Max_cycle;Signal;HPM_P1;HPM_P2
2022/04/08 00:01:38;;;;;;;12.25;2.53;;;;;;;5.65;86.42;99583.91;5052442;28;20024;-74
2022/04/08 00:04:04;;;;;;;14.90;2.70;;;;;;;5.62;87.05;99589.72;5072687;28;20028;-73
2022/04/08 00:06:30;;;;;;;20.70;2.88;;;;;;;5.67;85.94;99600.59;5071874;28;20503;-74
2022/04/08 00:08:55;;;;;;;11.35;2.90;;;;;;;5.64;85.50;99603.72;5072737;28;20064;-73
2022/04/08 00:11:20;;;;;;;16.63;3.33;;;;;;;5.65;86.15;99608.06;5072708;28;20032;-74
2022/04/08 00:13:45;;;;;;;15.00;2.38;;;;;;;5.62;85.51;99617.38;5072717;28;20419;-74
2022/04/08 00:16:11;;;;;;;16.00;2.88;;;;;;;5.66;85.75;99620.41;5062633;28;20036;-74
2022/04/08 00:18:39;;;;;;;15.23;2.70;;;;;;;5.71;85.67;99617.91;5052616;28;20029;-74
2022/04/08 00:21:05;;;;;;;15.38;2.30;;;;;;;5.73;85.09;99634.59;5051018;28;20024;-74
2022/04/08 00:23:31;;;;;;;15.43;2.70;;;;;;;5.62;85.71;99636.16;5052913;28;20420;-74
2022/04/08 00:25:57;;;;;;;13.90;2.72;;;;;;;5.65;86.28;99643.75;5052765;28;20068;-74
2022/04/08 00:28:22;;;;;;;16.02;3.15;;;;;;;5.62;87.49;99636.16;5052341;28;20060;-74
2022/04/08 00:30:47;;;;;;;16.48;2.20;;;;;;;5.60;87.06;99635.56;5052499;28;20025;-74
2022/04/08 00:33:12;;;;;;;14.43;2.85;;;;;;;5.58;86.72;99628.78;5052239;28;20475;-74
2022/04/08 00:35:38;;;;;;;13.07;2.38;;;;;;;5.58;85.98;99631.44;5052308;28;20103;-74
2022/04/08 00:38:03;;;;;;;16.92;3.20;;;;;;;5.52;85.96;99627.78;5062440;28;20035;-73
2022/04/08 00:40:28;;;;;;;18.35;3.05;;;;;;;5.45;87.06;99638.59;5071822;28;20043;-74
2022/04/08 00:42:54;;;;;;;21.33;3.28;;;;;;;5.50;86.39;99637.94;5072395;28;20024;-74
2022/04/08 00:45:20;;;;;;;18.13;2.95;;;;;;;5.47;87.01;99652.59;5072175;28;20035;-73
2022/04/08 00:47:45;;;;;;;20.52;3.90;;;;;;;5.52;86.10;99656.50;5072050;28;20380;-74
2022/04/08 00:50:11;;;;;;;12.80;2.65;;;;;;;5.53;86.14;99660.84;5071770;28;20051;-74
2022/04/08 00:52:40;;;;;;;16.67;3.28;;;;;;;5.49;87.00;99669.28;5072320;28;20020;-73
2022/04/08 00:55:06;;;;;;;22.52;3.42;;;;;;;5.49;86.92;99679.22;5071781;28;20043;-74
2022/04/08 00:57:32;;;;;;;16.50;3.08;;;;;;;5.48;86.87;99677.56;5072192;28;20025;-74
2022/04/08 01:00:01;;;;;;;18.20;3.35;;;;;;;5.57;86.29;99672.75;5070795;28;20487;-74
2022/04/08 01:02:28;;;;;;;17.08;3.03;;;;;;;5.56;86.26;99679.97;5069352;28;20496;-73
2022/04/08 01:04:54;;;;;;;19.08;2.92;;;;;;;5.58;86.07;99675.19;5071919;28;20667;-74
2022/04/08 01:07:19;;;;;;;17.17;3.78;;;;;;;5.52;85.91;99667.22;5052101;28;20040;-74
2022/04/08 01:09:45;;;;;;;18.60;3.00;;;;;;;5.46;85.90;99676.97;5071081;28;20028;-74
2022/04/08 01:12:10;;;;;;;18.38;3.47;;;;;;;5.50;85.70;99689.72;5071610;28;20380;-73
2022/04/08 01:14:39;;;;;;;21.05;3.42;;;;;;;5.48;85.64;99699.88;5071865;28;20464;-74
2022/04/08 01:17:04;;;;;;;13.23;2.63;;;;;;;5.50;85.15;99705.81;5071872;28;20429;-74
2022/04/08 01:19:29;;;;;;;20.17;3.20;;;;;;;5.50;84.16;99702.34;5071740;28;20056;-74
2022/04/08 01:21:55;;;;;;;19.15;3.10;;;;;;;5.47;84.92;99700.91;5071360;28;20166;-73
2022/04/08 01:24:21;;;;;;;13.73;2.80;;;;;;;5.50;84.61;99711.19;5071242;28;20032;-74
2022/04/08 01:26:47;;;;;;;15.93;2.85;;;;;;;5.40;84.88;99710.84;5071845;28;20020;-74
2022/04/08 01:29:12;;;;;;;16.80;3.13;;;;;;;5.37;85.25;99700.56;5071361;28;20035;-74
2022/04/08 01:31:43;;;;;;;13.85;2.80;;;;;;;5.37;85.03;99703.25;5037980;28;20391;-74
2022/04/08 01:34:08;;;;;;;17.80;3.17;;;;;;;5.34;85.67;99711.75;5075511;28;20031;-75
2022/04/08 01:36:34;;;;;;;16.77;2.90;;;;;;;5.37;85.07;99719.34;5075499;28;20399;-74
2022/04/08 01:39:00;;;;;;;18.63;2.83;;;;;;;5.34;85.40;99730.53;5041291;28;20090;-75
2022/04/08 01:41:28;;;;;;;18.58;2.97;;;;;;;5.30;85.42;99721.28;5075318;28;20431;-74
2022/04/08 01:43:53;;;;;;;17.15;2.95;;;;;;;5.32;85.63;99713.81;5058007;28;20119;-74
2022/04/08 01:46:18;;;;;;;16.77;3.10;;;;;;;5.33;85.94;99720.84;5054918;28;20434;-74
2022/04/08 01:48:44;;;;;;;14.82;2.90;;;;;;;5.34;85.61;99717.09;5055253;28;20049;-74
2022/04/08 01:51:09;;;;;;;19.92;3.38;;;;;;;5.34;85.73;99719.78;5055154;28;20052;-74
2022/04/08 01:53:34;;;;;;;23.58;3.70;;;;;;;5.29;86.04;99725.81;5055286;28;20119;-74
2022/04/08 01:56:00;;;;;;;17.80;3.00;;;;;;;5.26;85.97;99722.75;5054859;28;20465;-74
2022/04/08 01:58:25;;;;;;;12.50;2.60;;;;;;;5.24;86.43;99730.19;5056698;28;20120;-74
2022/04/08 02:00:50;;;;;;;19.25;3.22;;;;;;;5.24;86.40;99732.84;5072523;28;20472;-74
2022/04/08 02:03:20;;;;;;;15.20;3.17;;;;;;;5.27;86.29;99737.81;5074641;28;20052;-74
2022/04/08 02:05:46;;;;;;;13.73;3.20;;;;;;;5.24;86.45;99738.22;5074727;28;20041;-74
2022/04/08 02:08:11;;;;;;;17.98;3.28;;;;;;;5.21;87.24;99733.28;5074501;28;20020;-74
2022/04/08 02:10:36;;;;;;;15.32;2.78;;;;;;;5.14;86.73;99736.84;5074899;28;20078;-74
2022/04/08 02:13:01;;;;;;;19.45;2.95;;;;;;;5.19;87.11;99744.25;5057025;28;20036;-74
2022/04/08 02:15:32;;;;;;;18.50;3.17;;;;;;;5.15;87.62;99743.84;5074416;28;20033;-74
2022/04/08 02:17:57;;;;;;;16.17;2.90;;;;;;;5.12;87.39;99740.81;5068558;28;20079;-74
2022/04/08 02:20:23;;;;;;;17.15;3.50;;;;;;;5.11;87.40;99747.19;5054493;28;20112;-75
2022/04/08 02:22:49;;;;;;;16.95;3.33;;;;;;;5.07;88.12;99737.94;5056014;28;20036;-73
2022/04/08 02:25:14;;;;;;;15.80;2.47;;;;;;;5.05;87.97;99751.56;5068441;28;20029;-77
2022/04/08 02:27:40;;;;;;;13.60;2.60;;;;;;;5.02;88.23;99746.63;5058670;28;20472;-76
2022/04/08 02:30:06;;;;;;;13.48;2.55;;;;;;;5.02;87.83;99751.97;5054585;28;20111;-73
2022/04/08 02:32:31;;;;;;;14.18;2.80;;;;;;;5.00;87.34;99762.13;5057557;28;20028;-75
2022/04/08 02:34:56;;;;;;;20.70;3.30;;;;;;;4.95;88.20;99752.03;5055420;28;20490;-74
2022/04/08 02:37:21;;;;;;;17.48;3.15;;;;;;;4.94;87.98;99760.28;5073882;28;20116;-74
2022/04/08 02:39:47;;;;;;;9.30;2.67;;;;;;;4.96;88.08;99759.03;5066456;28;20033;-74
2022/04/08 02:42:12;;;;;;;18.42;2.58;;;;;;;4.91;87.89;99756.19;5054457;28;20480;-74
2022/04/08 02:44:37;;;;;;;23.58;3.45;;;;;;;4.89;88.40;99758.25;5053324;28;20021;-74
2022/04/08 02:47:03;;;;;;;19.45;3.50;;;;;;;4.87;88.78;99759.50;5053876;28;20027;-74
2022/04/08 02:49:28;;;;;;;13.18;2.97;;;;;;;4.86;87.70;99757.84;5053950;28;20473;-74
2022/04/08 02:51:54;;;;;;;16.58;2.45;;;;;;;4.86;87.92;99761.38;5054286;28;20508;-74
2022/04/08 02:54:19;;;;;;;15.40;2.80;;;;;;;4.83;87.72;99758.28;5053874;28;20061;-74
2022/04/08 02:56:44;;;;;;;16.20;3.08;;;;;;;4.78;88.19;99762.41;5054095;28;20443;-74
2022/04/08 02:59:10;;;;;;;21.83;3.00;;;;;;;4.79;87.93;99765.94;5046296;28;20078;-74
2022/04/08 03:01:35;;;;;;;21.10;3.15;;;;;;;4.75;88.35;99760.16;5071575;28;20532;-74
2022/04/08 03:04:01;;;;;;;15.07;3.20;;;;;;;4.72;88.01;99763.25;5073782;28;20376;-74
2022/04/08 03:06:27;;;;;;;12.05;2.70;;;;;;;4.72;88.58;99759.78;5073653;28;20047;-74
2022/04/08 03:08:52;;;;;;;15.68;2.92;;;;;;;4.68;88.21;99764.75;5073677;28;20029;-74
2022/04/08 03:11:18;;;;;;;20.20;2.95;;;;;;;4.64;88.40;99760.03;5073555;28;20025;-74
2022/04/08 03:13:43;;;;;;;12.52;2.90;;;;;;;4.59;88.77;99768.72;5073501;28;20025;-73
2022/04/08 03:16:09;;;;;;;18.65;3.08;;;;;;;4.55;88.49;99762.13;5073413;28;20102;-74
2022/04/08 03:18:34;;;;;;;13.02;2.97;;;;;;;4.58;88.89;99775.09;5059838;28;20040;-74
2022/04/08 03:20:59;;;;;;;13.40;2.65;;;;;;;4.54;88.89;99763.16;5035847;28;20067;-74
2022/04/08 03:23:25;;;;;;;12.50;2.60;;;;;;;4.54;88.83;99768.50;5035370;28;20040;-74
2022/04/08 03:25:50;;;;;;;17.33;3.40;;;;;;;4.51;89.07;99772.41;5035450;28;20362;-74
2022/04/08 03:28:15;;;;;;;13.52;2.78;;;;;;;4.47;89.25;99783.78;5035384;28;20495;-74
2022/04/08 03:30:40;;;;;;;14.05;2.50;;;;;;;4.44;89.35;99783.19;5053638;28;20091;-74
2022/04/08 03:33:06;;;;;;;16.05;2.58;;;;;;;4.40;88.89;99781.13;5053377;28;20056;-74
2022/04/08 03:35:31;;;;;;;12.30;2.50;;;;;;;4.42;88.77;99785.25;5053439;28;20029;-74
2022/04/08 03:37:56;;;;;;;10.85;2.40;;;;;;;4.35;89.27;99784.44;5052908;28;20025;-74
2022/04/08 03:40:23;;;;;;;10.55;2.35;;;;;;;4.34;89.61;99790.00;5054114;28;20029;-74
2022/04/08 03:42:48;;;;;;;18.63;3.30;;;;;;;4.36;89.41;99790.59;5053019;28;20473;-74
2022/04/08 03:45:13;;;;;;;14.43;3.00;;;;;;;4.35;89.39;99787.13;5053343;28;20055;-74
2022/04/08 03:47:39;;;;;;;11.48;2.33;;;;;;;4.32;89.41;99784.03;5052645;28;20024;-74
2022/04/08 03:50:05;;;;;;;13.98;2.60;;;;;;;4.26;89.71;99789.19;5052667;28;20075;-74
2022/04/08 03:52:32;;;;;;;9.00;2.55;;;;;;;4.24;89.58;99796.63;5052695;28;20043;-74
2022/04/08 03:54:59;;;;;;;18.05;3.08;;;;;;;4.23;89.79;99799.50;5035115;28;20033;-74
2022/04/08 03:57:25;;;;;;;11.52;2.75;;;;;;;4.21;90.01;99798.88;5052628;28;20033;-74
2022/04/08 03:59:50;;;;;;;13.27;2.80;;;;;;;4.17;89.97;99800.34;5070722;28;20032;-74
2022/04/08 04:02:15;;;;;;;15.32;3.33;;;;;;;4.15;90.12;99799.72;5070220;28;20024;-74
2022/04/08 04:04:41;;;;;;;12.68;2.70;;;;;;;4.15;90.09;99805.06;5072675;28;20017;-74
2022/04/08 04:07:07;;;;;;;10.35;2.70;;;;;;;4.16;89.78;99806.72;5072677;28;20051;-74
2022/04/08 04:09:32;;;;;;;14.23;2.92;;;;;;;4.13;90.09;99801.78;5072647;28;20402;-74
2022/04/08 04:11:57;;;;;;;11.45;2.55;;;;;;;4.08;90.26;99800.56;5072793;28;20032;-74
2022/04/08 04:14:23;;;;;;;10.30;2.67;;;;;;;4.05;90.20;99797.47;5072272;28;20032;-74
2022/04/08 04:16:48;;;;;;;8.25;2.80;;;;;;;4.03;89.99;99802.19;5053958;28;20036;-74
2022/04/08 04:19:13;;;;;;;17.67;3.25;;;;;;;3.97;90.44;99790.50;5072706;28;20037;-74
2022/04/08 04:21:38;;;;;;;10.68;3.17;;;;;;;4.01;89.96;99798.91;5072296;28;20488;-74
2022/04/08 04:24:04;;;;;;;11.50;3.20;;;;;;;3.95;90.43;99792.53;5072941;28;20029;-74
2022/04/08 04:26:29;;;;;;;14.35;3.55;;;;;;;3.95;90.46;99789.84;5072154;28;20439;-74
2022/04/08 04:28:55;;;;;;;9.10;3.15;;;;;;;3.90;90.19;99787.00;5072130;28;20630;-74
2022/04/08 04:31:20;;;;;;;15.13;3.50;;;;;;;3.90;90.25;99790.47;5072073;28;20024;-74
2022/04/08 04:33:45;;;;;;;11.52;3.15;;;;;;;3.94;90.43;99788.22;5072562;28;20083;-74
2022/04/08 04:36:11;;;;;;;8.77;3.30;;;;;;;3.89;90.88;99794.22;5072130;28;20035;-74
2022/04/08 04:38:36;;;;;;;10.52;3.88;;;;;;;3.86;90.90;99794.59;5067576;28;20029;-74
2022/04/08 04:41:02;;;;;;;12.40;3.78;;;;;;;3.89;90.20;99796.03;5052088;28;20025;-74
2022/04/08 04:43:27;;;;;;;14.85;3.75;;;;;;;3.89;90.58;99798.72;5051898;28;20025;-74
2022/04/08 04:45:52;;;;;;;13.13;4.20;;;;;;;3.87;90.58;99795.44;5051678;28;20024;-74
2022/04/08 04:48:18;;;;;;;10.77;3.58;;;;;;;3.83;90.49;99797.69;5034085;28;20021;-74
2022/04/08 04:50:43;;;;;;;14.50;3.95;;;;;;;3.82;90.77;99800.56;5051730;28;20412;-74
2022/04/08 04:53:09;;;;;;;8.85;4.05;;;;;;;3.82;90.35;99800.56;5052304;28;20640;-74
2022/04/08 04:55:34;;;;;;;13.95;4.78;;;;;;;3.80;90.95;99797.28;5034134;28;20107;-74
2022/04/08 04:57:59;;;;;;;13.13;4.93;;;;;;;3.82;91.18;99800.56;5056767;28;20032;-74
2022/04/08 05:00:24;;;;;;;14.10;5.40;;;;;;;3.78;91.13;99800.16;5070254;28;20035;-74
2022/04/08 05:02:50;;;;;;;14.60;5.25;;;;;;;3.78;91.31;99799.34;5071447;28;20086;-74
2022/04/08 05:05:15;;;;;;;13.25;5.43;;;;;;;3.79;91.19;99795.63;5072270;28;20031;-74
2022/04/08 05:07:41;;;;;;;14.00;5.35;;;;;;;3.77;91.38;99795.84;5074295;28;20487;-74
2022/04/08 05:10:07;;;;;;;13.50;6.05;;;;;;;3.77;91.27;99792.34;5058186;28;20114;-74
2022/04/08 05:12:35;;;;;;;16.02;6.15;;;;;;;3.80;91.09;99791.94;5066946;28;20029;-74
2022/04/08 05:15:06;;;;;;;12.77;5.57;;;;;;;3.81;90.98;99794.41;5055951;28;20134;-74
2022/04/08 05:17:34;;;;;;;15.10;6.32;;;;;;;3.83;91.12;99792.34;5058363;28;20039;-74
2022/04/08 05:20:00;;;;;;;15.20;6.28;;;;;;;3.89;90.68;99790.69;5075590;28;20460;-74
2022/04/08 05:22:25;;;;;;;16.45;6.00;;;;;;;3.90;91.06;99797.69;5075630;28;20051;-74
2022/04/08 05:24:51;;;;;;;11.93;5.60;;;;;;;3.89;90.45;99790.69;5075876;28;20024;-74
2022/04/08 05:27:16;;;;;;;14.82;6.07;;;;;;;3.91;90.55;99802.03;5076042;28;20028;-74
2022/04/08 05:29:41;;;;;;;13.55;6.43;;;;;;;3.94;90.69;99798.94;5075516;28;20433;-74
2022/04/08 05:32:07;;;;;;;15.48;6.70;;;;;;;3.95;90.87;99789.03;5029148;28;20164;-74
2022/04/08 05:34:32;;;;;;;14.35;7.00;;;;;;;3.96;90.98;99786.16;5037467;28;20503;-74
2022/04/08 05:36:57;;;;;;;17.50;7.65;;;;;;;3.96;91.15;99786.16;5055149;28;20052;-74
2022/04/08 05:39:23;;;;;;;14.88;7.63;;;;;;;3.99;91.24;99787.59;5075906;28;20456;-74
2022/04/08 05:41:48;;;;;;;18.83;8.13;;;;;;;4.03;91.12;99776.28;5075316;28;20074;-74
2022/04/08 05:44:13;;;;;;;15.40;8.40;;;;;;;4.10;91.57;99780.78;5075484;28;20032;-74
2022/04/08 05:46:38;;;;;;;17.60;8.98;;;;;;;4.11;91.56;99782.41;5074934;28;20063;-74
2022/04/08 05:49:04;;;;;;;15.13;8.73;;;;;;;4.13;91.70;99783.88;5075620;28;20044;-75
2022/04/08 05:51:29;;;;;;;16.13;8.52;;;;;;;4.14;91.58;99779.34;5075406;28;20036;-74
2022/04/08 05:53:54;;;;;;;15.63;8.30;;;;;;;4.16;91.44;99770.06;5075490;28;20043;-76
2022/04/08 05:56:19;;;;;;;16.58;9.02;;;;;;;4.19;91.71;99768.81;5072587;28;20032;-76
2022/04/08 05:58:45;;;;;;;13.73;8.50;;;;;;;4.24;91.97;99761.81;5054610;28;20045;-76
2022/04/08 06:01:10;;;;;;;15.93;8.23;;;;;;;4.24;91.64;99763.66;5034930;28;20059;-73
2022/04/08 06:03:36;;;;;;;16.25;8.45;;;;;;;4.27;91.59;99765.91;5037199;28;20361;-75
2022/04/08 06:06:01;;;;;;;16.60;8.88;;;;;;;4.26;91.37;99765.09;5054872;28;20045;-76
2022/04/08 06:08:26;;;;;;;14.45;8.32;;;;;;;4.31;91.46;99777.03;5055380;28;20052;-76
2022/04/08 06:10:52;;;;;;;15.38;8.43;;;;;;;4.25;91.48;99760.75;5054841;28;20029;-76
2022/04/08 06:13:17;;;;;;;13.23;7.72;;;;;;;4.32;91.22;99766.13;5055044;28;20033;-77
2022/04/08 06:15:43;;;;;;;13.25;7.68;;;;;;;4.31;91.56;99766.31;5054843;28;20064;-79
2022/04/08 06:18:09;;;;;;;14.98;7.78;;;;;;;4.27;90.93;99763.22;5072961;28;20379;-78
2022/04/08 06:20:35;;;;;;;14.13;8.13;;;;;;;4.31;90.84;99760.97;5056554;28;20083;-77
2022/04/08 06:23:00;;;;;;;13.57;7.90;;;;;;;4.33;91.15;99767.75;5074875;28;20112;-76
2022/04/08 06:25:25;;;;;;;14.90;7.45;;;;;;;4.37;90.91;99770.84;5074837;28;20043;-77
2022/04/08 06:28:05;;;;;;;18.40;7.43;;;;;;;4.43;90.66;99773.47;5074438;28;20056;-77
2022/04/08 06:30:40;;;;;;;10.52;7.15;;;;;;;4.43;91.28;99765.44;5056044;28;20041;-77
2022/04/08 06:33:06;;;;;;;11.60;6.78;;;;;;;4.52;90.38;99773.25;5056675;28;20127;-76
2022/04/08 06:35:33;;;;;;;9.68;6.53;;;;;;;4.55;89.94;99775.53;5068407;28;20388;-76
2022/04/08 06:38:03;;;;;;;13.45;6.97;;;;;;;4.55;90.38;99762.13;5054697;28;20032;-77
2022/04/08 06:40:28;;;;;;;15.05;6.45;;;;;;;4.61;90.04;99772.00;5053905;28;20037;-76
2022/04/08 06:42:59;;;;;;;15.70;6.55;;;;;;;4.66;89.96;99753.41;5036521;28;20033;-77
2022/04/08 06:45:26;;;;;;;15.60;6.80;;;;;;;4.73;89.52;99754.19;5036167;28;20501;-76
2022/04/08 06:47:52;;;;;;;13.35;5.97;;;;;;;4.80;89.24;99748.78;5035931;28;20071;-76
2022/04/08 06:50:18;;;;;;;15.10;6.32;;;;;;;4.87;88.34;99754.94;5053953;28;20036;-77
2022/04/08 06:52:44;;;;;;;11.60;6.28;;;;;;;4.90;88.84;99759.88;5054020;28;20029;-76
2022/04/08 06:55:10;;;;;;;11.68;6.30;;;;;;;4.94;89.80;99754.94;5055318;28;20384;-76
2022/04/08 06:57:36;;;;;;;12.25;6.03;;;;;;;4.99;88.38;99755.09;5035719;28;20120;-76
2022/04/08 07:00:04;;;;;;;13.70;6.40;;;;;;;5.00;87.79;99746.03;5054032;28;20520;-76
2022/04/08 07:02:29;;;;;;;11.77;6.22;;;;;;;5.01;88.35;99739.59;5051816;28;20056;-76
2022/04/08 07:04:54;;;;;;;11.85;5.60;;;;;;;4.99;87.80;99746.25;5053909;28;20056;-76
2022/04/08 07:07:20;;;;;;;11.80;5.72;;;;;;;5.04;87.85;99755.28;5053575;28;20048;-76
2022/04/08 07:09:45;;;;;;;11.23;5.85;;;;;;;5.06;87.48;99750.53;5053614;28;20029;-76
2022/04/08 07:12:11;;;;;;;10.38;5.28;;;;;;;5.11;87.11;99756.06;5053827;28;20025;-76
2022/04/08 07:14:36;;;;;;;25.25;7.13;;;;;;;5.15;86.90;99756.47;5042505;28;20028;-76
2022/04/08 07:17:01;;;;;;;10.73;5.85;;;;;;;5.19;87.01;99746.09;5055711;28;20021;-76
2022/04/08 07:19:26;;;;;;;10.07;5.10;;;;;;;5.24;86.26;99748.94;5073530;28;20066;-76
2022/04/08 07:21:52;;;;;;;12.98;5.05;;;;;;;5.21;86.55;99744.03;5073163;28;20422;-76
2022/04/08 07:24:17;;;;;;;9.18;5.00;;;;;;;5.27;86.81;99743.19;5073717;28;20035;-76
2022/04/08 07:26:42;;;;;;;10.50;5.13;;;;;;;5.30;86.39;99737.38;5073314;28;20032;-76
2022/04/08 07:29:08;;;;;;;12.85;4.88;;;;;;;5.33;85.60;99743.13;5073232;28;20024;-76
2022/04/08 07:31:34;;;;;;;12.43;5.18;;;;;;;5.35;85.05;99742.09;5055527;28;20040;-76
2022/04/08 07:34:00;;;;;;;9.73;5.00;;;;;;;5.38;85.01;99738.97;5038868;28;20403;-76
2022/04/08 07:36:26;;;;;;;11.65;5.10;;;;;;;5.40;86.06;99732.31;5071365;28;20039;-76
2022/04/08 07:38:51;;;;;;;11.15;5.20;;;;;;;5.47;86.82;99730.41;5072796;28;20040;-76
2022/04/08 07:41:17;;;;;;;12.00;5.03;;;;;;;5.57;85.65;99735.31;5055353;28;20033;-76
2022/04/08 07:43:42;;;;;;;10.23;4.93;;;;;;;5.58;85.36;99731.56;5072871;28;20471;-77
2022/04/08 07:46:10;;;;;;;13.73;4.70;;;;;;;5.63;84.87;99736.25;5072807;28;20029;-77
2022/04/08 07:48:35;;;;;;;9.48;4.45;;;;;;;5.68;83.98;99739.94;5072928;28;20386;-76
2022/04/08 07:51:00;;;;;;;10.23;4.88;;;;;;;5.67;83.92;99735.59;5072865;28;20024;-77
2022/04/08 07:53:25;;;;;;;14.45;4.90;;;;;;;5.66;83.69;99735.81;5055165;28;20472;-76
2022/04/08 07:55:51;;;;;;;9.82;4.38;;;;;;;5.68;83.39;99734.56;5044163;28;20033;-76
2022/04/08 07:58:16;;;;;;;9.43;4.55;;;;;;;5.68;83.90;99723.84;5052636;28;20466;-76
2022/04/08 08:00:42;;;;;;;9.32;4.57;;;;;;;5.73;84.02;99733.91;5032577;28;20259;-77
2022/04/08 08:03:07;;;;;;;12.35;5.18;;;;;;;5.75;84.84;99721.09;5018207;28;20041;-76
2022/04/08 08:05:33;;;;;;;12.40;5.05;;;;;;;5.78;83.83;99726.03;5052387;28;20029;-74
2022/04/08 08:08:00;;;;;;;12.20;5.75;;;;;;;5.84;83.57;99717.09;5034802;28;20025;-76
2022/04/08 08:10:30;;;;;;;10.88;5.18;;;;;;;5.90;83.80;99714.56;5052834;28;20069;-77
2022/04/08 08:12:57;;;;;;;12.45;5.20;;;;;;;5.95;82.91;99723.59;5034661;28;20479;-80
2022/04/08 08:15:23;;;;;;;8.68;4.63;;;;;;;6.00;83.44;99722.94;5070246;28;20028;-80
2022/04/08 08:17:49;;;;;;;11.93;4.80;;;;;;;6.02;83.24;99720.84;5054477;28;20029;-80
2022/04/08 08:20:16;;;;;;;12.45;4.93;;;;;;;6.05;82.32;99723.09;5037934;28;20083;-80
2022/04/08 08:22:42;;;;;;;11.55;4.95;;;;;;;6.11;83.66;99727.56;5050877;28;20120;-80
2022/04/08 08:25:09;;;;;;;9.50;4.90;;;;;;;6.15;82.01;99723.41;5047786;28;20071;-80
2022/04/08 08:27:43;;;;;;;13.07;4.70;;;;;;;6.19;80.50;99718.41;5054899;28;20029;-80
2022/04/08 08:30:10;;;;;;;10.23;4.00;;;;;;;6.15;81.28;99717.22;5034947;28;20037;-79
2022/04/08 08:32:37;;;;;;;9.85;4.70;;;;;;;6.19;80.78;99713.06;5052528;28;20033;-80
2022/04/08 08:35:03;;;;;;;10.43;4.43;;;;;;;6.25;79.98;99708.63;5038053;28;20405;-80
2022/04/08 08:37:28;;;;;;;9.98;4.32;;;;;;;6.28;81.01;99700.13;5049875;28;20032;-79
2022/04/08 08:39:56;;;;;;;9.70;4.30;;;;;;;6.34;79.70;99688.47;5089829;28;20034;-79
2022/04/08 08:42:24;;;;;;;9.20;3.85;;;;;;;6.38;78.45;99693.16;5087131;28;20423;-79
2022/04/08 08:44:49;;;;;;;7.65;3.80;;;;;;;6.41;77.99;99681.16;5072278;28;20036;-78
2022/04/08 08:47:17;;;;;;;7.63;4.00;;;;;;;6.41;78.42;99677.66;5053399;28;20029;-72
2022/04/08 08:49:47;;;;;;;7.45;3.97;;;;;;;6.49;78.48;99680.84;5071850;28;20028;-79
2022/04/08 08:52:14;;;;;;;12.25;4.03;;;;;;;6.50;76.46;99678.97;5072625;28;20033;-76
2022/04/08 08:54:40;;;;;;;10.35;3.58;;;;;;;6.54;75.85;99680.97;5062502;28;20459;-80
2022/04/08 08:57:08;;;;;;;16.75;3.72;;;;;;;6.59;74.88;99666.03;5069172;28;20032;-81
2022/04/08 08:59:33;;;;;;;8.35;3.25;;;;;;;6.59;74.15;99666.84;5074369;28;20082;-81
2022/04/08 09:02:01;;;;;;;7.85;3.38;;;;;;;6.64;74.15;99663.47;5071825;28;20056;-81
2022/04/08 09:04:27;;;;;;;7.05;3.28;;;;;;;6.75;75.04;99668.09;5071717;28;20422;-81
2022/04/08 09:06:52;;;;;;;8.80;3.42;;;;;;;6.74;73.84;99658.38;5071410;28;20052;-81
2022/04/08 09:09:28;;;;;;;8.35;3.08;;;;;;;6.79;72.88;99655.81;5054214;28;20062;-81
2022/04/08 09:11:54;;;;;;;8.75;3.13;;;;;;;6.84;72.94;99650.59;5077564;28;20024;-81
2022/04/08 09:14:27;;;;;;;8.00;3.03;;;;;;;6.85;71.69;99662.94;5089169;28;20519;-79
2022/04/08 09:17:00;;;;;;;7.43;3.22;;;;;;;6.87;71.43;99657.34;5052022;28;20032;-77
2022/04/08 09:19:31;;;;;;;6.00;2.78;;;;;;;6.91;71.92;99656.69;5051724;28;20033;-78
2022/04/08 09:21:56;;;;;;;7.25;2.95;;;;;;;7.02;73.29;99659.59;5083463;28;20041;-79
2022/04/08 09:24:23;;;;;;;9.15;3.17;;;;;;;7.08;71.90;99661.38;5071777;28;20039;-80
2022/04/08 09:26:52;;;;;;;8.98;3.08;;;;;;;7.15;71.66;99661.28;5071339;28;20060;-78
2022/04/08 09:29:22;;;;;;;8.82;3.05;;;;;;;7.17;70.82;99653.78;5043767;28;20127;-79
2022/04/08 09:31:49;;;;;;;12.07;4.03;;;;;;;7.12;69.07;99657.19;5033653;28;20033;-77
2022/04/08 09:34:16;;;;;;;9.73;2.90;;;;;;;7.08;69.40;99662.22;5034069;28;20040;-74
2022/04/08 09:36:42;;;;;;;7.10;2.80;;;;;;;7.07;69.56;99657.88;5051747;28;20025;-80
2022/04/08 09:39:10;;;;;;;8.13;2.90;;;;;;;7.05;69.90;99653.75;5034128;28;20095;-77
2022/04/08 09:41:39;;;;;;;8.93;2.72;;;;;;;7.08;68.95;99656.00;5047233;28;20368;-80
2022/04/08 09:44:11;;;;;;;10.15;3.10;;;;;;;7.06;73.39;99658.09;5071192;28;20024;-80
2022/04/08 09:46:37;;;;;;;9.13;2.80;;;;;;;7.09;70.33;99660.31;5073687;28;20055;-78
2022/04/08 09:49:04;;;;;;;13.02;3.15;;;;;;;7.11;68.61;99658.25;5092203;28;20481;-76
2022/04/08 09:51:35;;;;;;;11.32;2.85;;;;;;;7.14;68.72;99660.47;5077042;28;20028;-77
2022/04/08 09:54:02;;;;;;;9.45;3.60;;;;;;;7.15;67.76;99663.97;5066030;28;20631;-79
2022/04/08 09:56:31;;;;;;;8.50;2.50;;;;;;;7.10;68.93;99661.97;5059113;28;20036;-80
2022/04/08 09:59:05;;;;;;;6.13;2.35;;;;;;;7.16;68.24;99652.16;5074363;28;20020;-79
2022/04/08 10:01:31;;;;;;;8.13;2.78;;;;;;;7.14;69.34;99655.09;5072951;28;20044;-79
2022/04/08 10:03:57;;;;;;;10.23;3.00;;;;;;;7.13;68.17;99648.06;5073879;28;20028;-78
2022/04/08 10:06:23;;;;;;;8.27;2.63;;;;;;;7.21;68.81;99660.34;5056457;28;20049;-82
2022/04/08 10:08:50;;;;;;;9.23;3.13;;;;;;;7.23;68.24;99642.94;5057137;28;20495;-76
2022/04/08 10:11:24;;;;;;;7.97;2.80;;;;;;;7.27;68.16;99652.16;5056818;28;20044;-80
2022/04/08 10:14:08;;;;;;;9.52;2.58;;;;;;;7.38;69.15;99661.31;5072631;28;20063;-79
2022/04/08 10:16:39;;;;;;;11.38;3.40;;;;;;;7.40;70.41;99647.63;5074558;28;20060;-79
2022/04/08 10:19:07;;;;;;;10.23;3.83;;;;;;;7.40;70.01;99648.44;5057060;28;20028;-79
2022/04/08 10:21:38;;;;;;;13.77;3.95;;;;;;;7.43;71.15;99650.66;5056820;28;20128;-79
2022/04/08 10:24:09;;;;;;;9.95;4.10;;;;;;;7.49;71.42;99651.59;5074626;28;20025;-79
2022/04/08 10:26:34;;;;;;;10.00;3.78;;;;;;;7.56;71.52;99643.41;5056761;28;20464;-79
2022/04/08 10:29:10;;;;;;;9.77;3.47;;;;;;;7.63;71.92;99639.53;5074857;28;20050;-79
2022/04/08 10:31:36;;;;;;;7.20;3.40;;;;;;;7.66;70.41;99642.81;5074635;28;20032;-80
2022/04/08 10:34:02;;;;;;;10.68;3.92;;;;;;;7.61;69.26;99636.25;5048956;28;20048;-79
2022/04/08 10:36:38;;;;;;;10.80;3.58;;;;;;;7.56;69.91;99628.09;5054641;28;20041;-79
2022/04/08 10:39:20;;;;;;;9.27;3.13;;;;;;;7.59;71.07;99635.69;5054270;28;20036;-79
2022/04/08 10:41:52;;;;;;;8.75;3.05;;;;;;;7.55;69.40;99625.59;5054059;28;20074;-79
2022/04/08 10:44:39;;;;;;;10.40;3.47;;;;;;;7.53;69.37;99630.41;5036493;28;20037;-79
2022/04/08 10:47:16;;;;;;;9.00;3.00;;;;;;;7.50;69.81;99631.69;5054182;28;20029;-80
2022/04/08 10:49:54;;;;;;;8.85;3.20;;;;;;;7.52;69.77;99631.44;5054483;28;20049;-80
2022/04/08 10:52:26;;;;;;;13.30;3.33;;;;;;;7.53;70.01;99628.53;5036667;28;20029;-81
2022/04/08 10:55:02;;;;;;;9.85;3.08;;;;;;;7.57;68.19;99636.97;5054643;28;20094;-80
2022/04/08 10:57:35;;;;;;;9.77;3.20;;;;;;;7.57;68.53;99631.59;5054221;28;20029;-80
2022/04/08 11:00:19;;;;;;;8.27;3.15;;;;;;;7.56;68.68;99641.53;5053627;28;20029;-80
2022/04/08 11:02:46;;;;;;;8.05;3.30;;;;;;;7.52;68.92;99639.53;5034699;28;20029;-80
2022/04/08 11:05:13;;;;;;;12.50;3.30;;;;;;;7.50;67.95;99637.06;5020412;28;20084;-80
2022/04/08 11:07:43;;;;;;;8.25;2.90;;;;;;;7.54;68.79;99629.38;5036752;28;20094;-78
2022/04/08 11:10:13;;;;;;;9.85;3.28;;;;;;;7.59;67.21;99619.53;5054429;28;20060;-76
2022/04/08 11:12:46;;;;;;;10.93;3.08;;;;;;;7.59;68.42;99614.16;5036470;28;20120;-78
2022/04/08 11:15:19;;;;;;;9.95;3.30;;;;;;;7.62;70.34;99608.28;5036007;28;20097;-81
2022/04/08 11:17:48;;;;;;;9.70;3.03;;;;;;;7.60;66.70;99618.47;5032208;28;20385;-77
2022/04/08 11:20:15;;;;;;;8.70;3.20;;;;;;;7.58;68.24;99606.31;5053964;28;20029;-75
2022/04/08 11:22:42;;;;;;;11.80;3.35;;;;;;;7.56;66.46;99613.78;5053759;28;20033;-75
2022/04/08 11:25:19;;;;;;;10.18;3.75;;;;;;;7.49;67.52;99608.53;5036339;28;20028;-79
2022/04/08 11:27:44;;;;;;;10.63;3.28;;;;;;;7.52;67.67;99602.69;5077542;28;20025;-78
2022/04/08 11:30:09;;;;;;;10.52;3.75;;;;;;;7.52;69.60;99586.53;5073541;28;20086;-78
2022/04/08 11:32:39;;;;;;;6.68;2.70;;;;;;;7.56;67.45;99598.47;5073291;28;20036;-81